Time;durP1;ratioP1;P1;durP2;ratioP2;P2;SDS_P1;SDS_P2;PMS_P1;PMS_P2;Temp;Humidity;BMP_temperature;BMP_pressure;BME280_temperature;BME280_humidity;BME280_pressure;Samples;Min_cycle;Max_cycle;Signal;HPM_P1;HPM_P2
2021/03/07 00:07:18;;;;;;;11.45;6.45;;;;;;;-1.57;71.21;101375.22;20907739;28;20037;-70
2021/03/07 00:17:19;;;;;;;14.85;6.85;;;;;;;-1.78;71.23;101356.19;20929467;28;20057;-70
2021/03/07 00:27:20;;;;;;;14.32;7.07;;;;;;;-1.77;73.02;101351.91;20920332;28;20501;-71
2021/03/07 00:37:21;;;;;;;19.15;8.15;;;;;;;-1.98;72.29;101339.69;20900773;28;20731;-71
2021/03/07 00:47:23;;;;;;;15.48;8.45;;;;;;;-1.94;72.63;101335.50;20901164;28;20041;-71
2021/03/07 00:57:24;;;;;;;17.42;8.63;;;;;;;-1.88;74.73;101343.25;20899863;28;20048;-72
2021/03/07 01:07:25;;;;;;;18.77;8.07;;;;;;;-2.06;74.57;101341.31;20901815;28;20063;-70
2021/03/07 01:17:26;;;;;;;17.85;8.07;;;;;;;-2.24;73.83;101318.91;20898327;28;20044;-70
2021/03/07 01:27:27;;;;;;;17.30;7.88;;;;;;;-2.40;75.53;101300.75;20879577;28;20052;-70
2021/03/07 01:37:28;;;;;;;16.77;8.20;;;;;;;-2.56;76.46;101284.28;20895605;28;20128;-70
2021/03/07 01:47:31;;;;;;;16.77;8.90;;;;;;;-2.77;77.55;101269.50;20896029;28;20065;-70
2021/03/07 01:57:34;;;;;;;17.23;8.53;;;;;;;-2.75;77.17;101252.47;20895162;28;20051;-70
2021/03/07 02:07:35;;;;;;;16.00;7.47;;;;;;;-2.65;76.35;101228.69;20894033;28;20045;-70
2021/03/07 02:17:37;;;;;;;18.77;8.43;;;;;;;-2.59;76.67;101221.03;20893816;28;20103;-71
2021/03/07 02:27:39;;;;;;;16.70;9.15;;;;;;;-2.49;76.53;101203.25;20893331;28;20135;-70
2021/03/07 02:37:46;;;;;;;17.77;8.45;;;;;;;-2.60;75.44;101185.16;20891979;28;20048;-70
2021/03/07 02:47:50;;;;;;;19.70;8.77;;;;;;;-2.59;77.64;101172.34;20892823;28;20041;-71
2021/03/07 02:57:54;;;;;;;17.13;8.45;;;;;;;-2.68;76.20;101156.88;20892105;28;20040;-69
2021/03/07 03:07:55;;;;;;;18.58;9.00;;;;;;;-2.47;74.67;101156.28;20894762;28;20041;-69
2021/03/07 03:17:57;;;;;;;14.20;7.20;;;;;;;-2.51;74.60;101156.22;20891511;28;20037;-69
2021/03/07 03:27:59;;;;;;;17.67;8.55;;;;;;;-2.50;74.72;101153.69;20890867;28;20049;-69
2021/03/07 03:38:00;;;;;;;16.33;8.90;;;;;;;-2.60;75.84;101145.03;20890341;28;20037;-70
2021/03/07 03:48:06;;;;;;;18.27;9.30;;;;;;;-2.55;75.62;101137.41;20874881;28;20114;-70
2021/03/07 03:58:10;;;;;;;18.35;9.18;;;;;;;-2.69;76.59;101128.69;20904223;28;20069;-70
2021/03/07 04:08:14;;;;;;;23.53;11.37;;;;;;;-2.67;77.96;101127.88;20903303;28;20137;-70
2021/03/07 04:18:17;;;;;;;23.10;9.83;;;;;;;-2.74;77.34;101120.09;20903011;28;20041;-71
2021/03/07 04:28:18;;;;;;;17.73;10.03;;;;;;;-2.78;77.87;101131.16;20885064;28;20194;-71
2021/03/07 04:38:19;;;;;;;16.58;9.15;;;;;;;-2.79;77.53;101125.16;20901325;28;20709;-70
2021/03/07 04:48:20;;;;;;;17.48;9.27;;;;;;;-2.88;78.02;101117.38;20901077;28;20060;-71
2021/03/07 04:58:22;;;;;;;15.60;8.10;;;;;;;-3.00;78.96;101127.50;20902027;28;20074;-71
2021/03/07 05:08:24;;;;;;;17.95;9.38;;;;;;;-2.99;79.72;101125.75;20898805;28;20112;-70
2021/03/07 05:18:25;;;;;;;18.35;8.82;;;;;;;-3.15;79.78;101124.75;20900599;28;20045;-70
2021/03/07 05:28:26;;;;;;;15.30;8.25;;;;;;;-3.24;80.00;101109.22;20898699;28;20532;-69
2021/03/07 05:38:27;;;;;;;15.68;7.97;;;;;;;-3.33;81.64;101096.31;20896646;28;20544;-70
2021/03/07 05:48:29;;;;;;;15.80;8.20;;;;;;;-3.32;81.04;101113.41;20897180;28;20049;-70
2021/03/07 05:58:31;;;;;;;18.52;8.70;;;;;;;-3.20;79.59;101108.47;20922723;28;20119;-70
2021/03/07 06:08:32;;;;;;;21.45;9.60;;;;;;;-3.37;80.31;101108.22;20931624;28;20106;-70
2021/03/07 06:18:42;;;;;;;18.75;10.05;;;;;;;-3.15;79.55;101117.88;20893561;28;20068;-70
2021/03/07 06:28:43;;;;;;;14.85;7.82;;;;;;;-3.09;78.39;101125.66;20878117;28;20044;-70
2021/03/07 06:38:53;;;;;;;17.30;7.82;;;;;;;-2.79;77.38;101117.47;20892597;28;20091;-69
2021/03/07 06:48:54;;;;;;;14.43;7.13;;;;;;;-2.49;74.46;101123.78;20893356;28;20099;-70
2021/03/07 06:59:08;;;;;;;14.95;7.90;;;;;;;-2.16;72.31;101111.28;20893272;28;20041;-71
2021/03/07 07:09:10;;;;;;;18.65;7.80;;;;;;;-1.92;71.50;101106.34;20885282;28;20041;-70
2021/03/07 07:19:11;;;;;;;14.88;7.38;;;;;;;-1.62;71.07;101115.09;20883136;28;20444;-71
2021/03/07 07:29:12;;;;;;;16.27;8.70;;;;;;;-1.46;69.62;101111.78;20912502;28;20103;-71
2021/03/07 07:39:17;;;;;;;15.50;8.65;;;;;;;-1.27;68.40;101123.91;20908344;28;20088;-70
2021/03/07 07:49:44;;;;;;;15.17;8.57;;;;;;;-0.99;67.98;101125.75;20881090;28;20601;-70
2021/03/07 07:59:51;;;;;;;16.50;7.97;;;;;;;-0.71;66.71;101128.44;20859678;28;20357;-70
2021/03/07 08:09:55;;;;;;;17.35;8.65;;;;;;;-0.45;65.41;101124.19;20906742;28;20045;-69
2021/03/07 08:19:56;;;;;;;16.20;7.53;;;;;;;-0.22;64.17;101124.25;20907347;28;20049;-70
2021/03/07 08:29:57;;;;;;;15.15;8.07;;;;;;;0.11;64.59;101116.53;20928561;28;20037;-70
2021/03/07 08:40:31;;;;;;;17.23;9.43;;;;;;;0.37;63.31;101106.19;20972811;28;20155;-70
2021/03/07 08:50:32;;;;;;;15.55;8.10;;;;;;;0.52;62.70;101098.44;20959925;28;20059;-69
2021/03/07 09:00:34;;;;;;;16.65;8.20;;;;;;;0.69;61.22;101095.84;20963522;28;20067;-70
2021/03/07 09:10:42;;;;;;;16.67;8.73;;;;;;;1.11;61.25;101103.44;20928527;28;20058;-70
2021/03/07 09:20:59;;;;;;;15.73;8.70;;;;;;;1.39;60.64;101090.38;20943133;28;20048;-71
2021/03/07 09:31:02;;;;;;;16.88;8.05;;;;;;;1.62;59.43;101089.38;20974787;28;20044;-69
2021/03/07 09:41:04;;;;;;;15.68;7.82;;;;;;;1.89;58.30;101074.53;20951068;28;20755;-73
2021/03/07 09:51:10;;;;;;;14.30;7.68;;;;;;;2.24;57.08;101059.59;20966757;28;20055;-69
2021/03/07 10:01:11;;;;;;;17.42;8.52;;;;;;;2.32;56.80;101051.78;20965307;28;20044;-69
2021/03/07 10:11:21;;;;;;;14.35;8.45;;;;;;;2.17;59.85;101042.47;20965298;28;20045;-69
2021/03/07 10:21:29;;;;;;;15.65;9.32;;;;;;;2.87;57.41;101031.34;20976262;28;20093;-70
2021/03/07 10:31:30;;;;;;;15.40;8.93;;;;;;;3.44;55.47;101020.19;20976622;28;20056;-69
2021/03/07 10:41:35;;;;;;;16.73;10.10;;;;;;;3.78;54.89;101022.22;20973862;28;20041;-69
2021/03/07 10:51:37;;;;;;;14.88;8.77;;;;;;;4.38;54.17;101012.50;20973619;28;20066;-69
2021/03/07 11:01:39;;;;;;;20.00;10.13;;;;;;;4.73;53.63;101011.81;20990299;28;20664;-70
2021/03/07 11:11:43;;;;;;;17.95;9.15;;;;;;;4.86;52.98;101004.63;20958962;28;20052;-69
2021/03/07 11:21:44;;;;;;;16.60;9.23;;;;;;;4.87;52.20;100994.25;20951255;28;20048;-69
2021/03/07 11:31:45;;;;;;;15.27;9.15;;;;;;;4.91;52.62;100988.09;21023756;28;20048;-69
2021/03/07 11:41:46;;;;;;;14.20;9.25;;;;;;;4.56;54.38;100982.78;21007121;28;20040;-69
2021/03/07 11:51:47;;;;;;;16.35;9.15;;;;;;;4.78;53.15;100960.69;20991113;28;20056;-70
2021/03/07 12:01:48;;;;;;;15.10;9.73;;;;;;;5.03;53.42;100946.28;21010376;28;20063;-70
2021/03/07 12:11:49;;;;;;;16.15;8.45;;;;;;;5.13;53.43;100914.06;21010375;28;20044;-70
2021/03/07 12:21:50;;;;;;;16.95;9.73;;;;;;;5.52;53.19;100894.09;21014874;28;20040;-70
2021/03/07 12:31:51;;;;;;;16.83;10.20;;;;;;;5.41;52.41;100879.66;21007302;28;20454;-68
2021/03/07 12:41:52;;;;;;;18.40;10.13;;;;;;;5.79;51.51;100856.13;20978410;28;20047;-70
2021/03/07 12:51:53;;;;;;;17.17;10.13;;;;;;;6.04;51.35;100842.50;21000020;28;20048;-69
2021/03/07 13:01:54;;;;;;;19.48;10.75;;;;;;;6.71;50.82;100825.72;20968045;28;20099;-69
2021/03/07 13:11:55;;;;;;;17.15;10.02;;;;;;;6.93;48.35;100803.31;20963539;28;20036;-70
2021/03/07 13:21:56;;;;;;;15.38;10.23;;;;;;;7.17;48.76;100788.63;20941562;28;20046;-70
2021/03/07 13:31:57;;;;;;;15.98;9.45;;;;;;;7.38;48.93;100774.03;20961450;28;20041;-71
2021/03/07 13:42:02;;;;;;;14.93;9.15;;;;;;;7.23;46.34;100771.06;20991015;28;20123;-70
2021/03/07 13:52:03;;;;;;;15.68;9.85;;;;;;;7.52;45.94;100759.59;20957869;28;20044;-70
2021/03/07 14:02:04;;;;;;;13.40;9.07;;;;;;;7.41;48.05;100746.13;21018979;28;20546;-70
2021/03/07 14:12:05;;;;;;;15.45;9.60;;;;;;;7.24;46.68;100740.66;20965258;28;20044;-69
2021/03/07 14:22:06;;;;;;;14.95;9.50;;;;;;;7.08;46.63;100708.25;20991361;28;20036;-68
2021/03/07 14:32:07;;;;;;;18.45;10.35;;;;;;;7.21;46.59;100717.34;21002698;28;20111;-69
2021/03/07 14:42:08;;;;;;;16.30;9.32;;;;;;;7.48;46.49;100702.47;20973909;28;20044;-70
2021/03/07 14:52:09;;;;;;;16.33;9.70;;;;;;;7.40;46.04;100701.91;20962073;28;20052;-69
2021/03/07 15:02:11;;;;;;;19.42;10.88;;;;;;;7.43;46.11;100687.03;20983558;28;20070;-69
2021/03/07 15:12:12;;;;;;;15.88;9.43;;;;;;;7.42;45.55;100669.69;20996021;28;20051;-68
2021/03/07 15:22:13;;;;;;;15.90;8.88;;;;;;;7.41;45.15;100649.78;20988777;28;20127;-68
2021/03/07 15:32:14;;;;;;;17.83;10.10;;;;;;;7.29;46.31;100639.81;20981803;28;20045;-70
2021/03/07 15:42:15;;;;;;;17.00;10.27;;;;;;;6.93;48.79;100628.13;21005324;28;20044;-68
2021/03/07 15:52:17;;;;;;;14.70;9.50;;;;;;;6.91;47.28;100617.75;21011090;28;20044;-67
2021/03/07 16:02:19;;;;;;;16.80;9.80;;;;;;;7.20;46.48;100614.13;20970188;28;20043;-68
2021/03/07 16:12:20;;;;;;;14.70;9.10;;;;;;;7.08;47.04;100610.22;20989121;28;20095;-70
2021/03/07 16:22:21;;;;;;;15.55;9.15;;;;;;;7.09;48.08;100601.50;21023902;28;20413;-69
2021/03/07 16:32:22;;;;;;;16.95;10.75;;;;;;;6.78;48.36;100596.56;21005550;28;20071;-69
2021/03/07 16:42:24;;;;;;;18.90;11.27;;;;;;;6.37;49.71;100600.59;20988698;28;20040;-69
2021/03/07 16:52:25;;;;;;;18.48;11.05;;;;;;;6.45;49.54;100595.09;21018225;28;20051;-70
2021/03/07 17:02:25;;;;;;;20.70;12.55;;;;;;;6.09;49.80;100599.81;21015703;28;20100;-70
2021/03/07 17:12:26;;;;;;;18.30;9.98;;;;;;;5.41;55.61;100609.72;21013852;28;20063;-70
2021/03/07 17:22:27;;;;;;;18.30;10.00;;;;;;;5.08;56.27;100617.56;21011569;28;20047;-73
2021/03/07 17:32:30;;;;;;;19.48;13.15;;;;;;;4.60;58.93;100637.06;20979480;28;20048;-69
2021/03/07 17:42:32;;;;;;;16.73;9.57;;;;;;;4.00;61.48;100653.25;20968152;28;20114;-71
2021/03/07 17:52:33;;;;;;;18.20;10.20;;;;;;;3.67;64.41;100654.84;20963845;28;20094;-71
2021/03/07 18:02:34;;;;;;;21.00;10.43;;;;;;;3.37;64.43;100677.03;20970031;28;20102;-71
2021/03/07 18:12:35;;;;;;;27.95;16.73;;;;;;;3.24;63.35;100679.91;20959702;28;20555;-71
2021/03/07 18:22:37;;;;;;;27.13;18.60;;;;;;;3.22;62.59;100692.88;21000116;28;20049;-72
2021/03/07 18:32:38;;;;;;;22.10;12.98;;;;;;;3.01;64.92;100694.13;20995202;28;20041;-72
2021/03/07 18:42:41;;;;;;;20.40;10.98;;;;;;;2.55;68.22;100683.75;20975411;28;20410;-72
2021/03/07 18:52:41;;;;;;;20.20;11.25;;;;;;;2.34;68.09;100683.25;20967655;28;20044;-72
2021/03/07 19:02:46;;;;;;;18.17;10.95;;;;;;;2.00;67.86;100688.09;20959641;28;20044;-71
2021/03/07 19:12:57;;;;;;;19.20;10.73;;;;;;;1.70;70.11;100686.81;20971781;28;20045;-73
2021/03/07 19:22:58;;;;;;;21.65;11.38;;;;;;;1.51;71.05;100682.78;21005071;28;20094;-70
2021/03/07 19:32:59;;;;;;;21.50;12.73;;;;;;;1.34;72.37;100692.44;20995218;28;20043;-73
2021/03/07 19:43:01;;;;;;;21.58;12.02;;;;;;;1.06;73.02;100689.34;21017325;28;20226;-72
2021/03/07 19:53:02;;;;;;;20.15;11.27;;;;;;;0.88;74.14;100692.09;20999402;28;20044;-72
2021/03/07 20:03:22;;;;;;;22.48;12.90;;;;;;;0.67;74.25;100696.59;21004515;28;20040;-72
2021/03/07 20:13:24;;;;;;;19.52;11.60;;;;;;;0.55;72.82;100701.88;21020164;28;20394;-72
2021/03/07 20:23:25;;;;;;;21.73;12.45;;;;;;;0.34;72.77;100700.31;21011351;28;20505;-72
2021/03/07 20:33:39;;;;;;;22.40;11.43;;;;;;;0.25;72.83;100713.25;20933421;28;20524;-72
2021/03/07 20:43:41;;;;;;;18.48;10.18;;;;;;;-0.06;72.81;100715.19;20971361;28;20538;-72
2021/03/07 20:53:42;;;;;;;20.10;11.05;;;;;;;-0.30;75.28;100723.00;20971090;28;20048;-72
2021/03/07 21:03:46;;;;;;;21.43;11.03;;;;;;;-0.43;71.74;100726.53;20974278;28;20407;-72
2021/03/07 21:13:48;;;;;;;21.05;11.50;;;;;;;-0.49;71.27;100737.69;20968841;28;20067;-72
2021/03/07 21:23:49;;;;;;;25.15;13.43;;;;;;;-0.59;72.45;100736.00;20979298;28;20506;-73
2021/03/07 21:33:50;;;;;;;22.30;12.18;;;;;;;-0.56;71.28;100748.00;21006138;28;20048;-71
2021/03/07 21:43:52;;;;;;;18.42;10.55;;;;;;;-0.29;67.34;100740.16;20990059;28;20094;-71
2021/03/07 21:53:53;;;;;;;19.17;10.68;;;;;;;-0.05;66.58;100737.44;20989557;28;20044;-72
2021/03/07 22:03:54;;;;;;;20.33;10.35;;;;;;;0.12;65.27;100739.06;20988677;28;20051;-72
2021/03/07 22:13:55;;;;;;;20.50;10.13;;;;;;;0.49;62.14;100745.69;20988140;28;20487;-72
2021/03/07 22:23:56;;;;;;;16.92;9.40;;;;;;;0.90;62.31;100765.09;20987611;28;20052;-72
2021/03/07 22:33:59;;;;;;;19.08;9.90;;;;;;;1.02;64.81;100767.53;20986602;28;20067;-71
2021/03/07 22:44:00;;;;;;;22.02;9.82;;;;;;;1.06;67.02;100764.09;20987239;28;20099;-73
2021/03/07 22:54:01;;;;;;;20.85;11.32;;;;;;;0.87;70.03;100760.81;21051372;28;20051;-72
2021/03/07 23:04:02;;;;;;;19.33;11.10;;;;;;;0.68;70.95;100760.13;21039033;28;20041;-71
2021/03/07 23:14:03;;;;;;;20.73;11.77;;;;;;;0.66;71.96;100750.72;20945294;22;20045;-70
2021/03/07 23:24:05;;;;;;;19.88;12.13;;;;;;;0.56;73.53;100744.75;20917233;28;20067;-70
2021/03/07 23:34:06;;;;;;;22.38;12.68;;;;;;;0.58;73.56;100748.19;20870178;28;20041;-69
2021/03/07 23:44:07;;;;;;;22.38;13.63;;;;;;;0.39;74.27;100760.34;20833111;28;20045;-70
2021/03/07 23:54:09;;;;;;;23.00;12.93;;;;;;;0.30;75.33;100757.00;20814099;28;20444;-69
